Date,TemperatureHighF,TemperatureAvgF,TemperatureLowF,DewpointHighF,DewpointAvgF,DewpointLowF,HumidityHigh,HumidityAvg,HumidityLow,PressureMaxIn,PressureMinIn,WindSpeedMaxMPH,WindSpeedAvgMPH,GustSpeedMaxMPH,PrecipitationSumIn
2013-1-1,19.8,10.8,4.8,8.9,4.0,0.3,81,74,56,30.05,29.97,8,4,0,0.00
2013-1-2,30.6,18.6,6.3,20.8,11.3,0.9,81,73,56,30.01,29.85,10,4,0,0.00
2013-1-3,26.6,22.8,12.7,22.6,18.1,8.5,87,82,76,30.07,29.88,12,6,0,0.00
2013-1-4,33.1,21.5,10.4,23.2,15.7,6.2,91,79,64,30.06,29.92,18,7,0,0.00
2013-1-5,36.1,28.0,17.2,32.2,25.0,15.5,95,88,71,30.03,29.70,15,5,0,0.06
2013-1-6,34.2,24.8,14.9,31.4,19.7,13.0,92,81,71,30.12,29.69,14,7,0,0.00
2013-1-7,40.5,27.0,13.5,28.3,21.1,11.1,93,79,60,30.12,29.85,16,6,0,0.00
2013-1-8,40.8,33.1,23.9,31.8,27.4,21.4,91,80,70,29.93,29.78,11,5,0,0.00
2013-1-9,44.1,35.7,26.2,32.1,27.0,22.0,85,71,48,30.28,29.77,23,7,0,0.00
2013-1-10,45.0,33.3,22.5,37.9,27.4,20.0,97,80,49,30.30,29.64,14,6,0,0.78
2013-1-11,49.1,45.9,38.8,46.5,44.3,38.0,98,94,89,29.63,29.44,13,6,0,0.45
2013-1-12,49.3,37.2,24.1,45.6,31.4,20.3,91,79,67,29.81,29.46,17,7,0,0.00
2013-1-13,23.7,18.9,10.8,21.5,13.1,4.7,92,78,68,30.07,29.70,14,7,0,0.00
2013-1-14,26.6,14.1,5.9,13.2,7.0,2.3,85,74,51,30.27,30.08,9,4,0,0.00
2013-1-15,28.4,16.9,6.4,15.8,10.7,3.6,91,77,56,30.25,29.92,8,2,0,0.00
2013-1-16,34.0,24.9,12.0,29.3,18.4,7.9,89,76,64,29.92,29.62,14,6,0,0.00
2013-1-17,33.3,23.6,15.6,29.3,12.7,6.5,85,64,44,30.21,29.86,12,4,0,0.00
2013-1-18,41.4,30.3,14.7,31.3,23.4,11.0,88,76,65,30.23,29.66,21,7,0,0.00
2013-1-19,47.5,38.0,20.7,35.4,28.8,8.7,77,70,54,29.76,29.50,28,10,0,0.04
2013-1-20,19.6,13.6,9.1,6.9,2.6,-0.2,67,61,50,30.13,29.78,20,8,0,0.00
2013-1-21,11.3,6.0,1.0,2.3,-4.5,-8.0,71,61,48,30.08,29.96,18,9,0,0.00
2013-1-22,11.3,4.0,-3.6,-2.6,-6.1,-10.0,75,62,50,30.18,30.08,16,6,0,0.00
2013-1-23,19.6,13.7,8.1,13.9,5.3,-2.8,81,69,59,30.18,29.89,14,7,0,0.00
2013-1-24,20.5,11.7,1.8,9.1,1.2,-5.1,73,63,46,30.44,30.12,11,6,0,0.00
2013-1-25,29.7,21.6,16.3,18.7,13.6,5.6,88,71,56,30.13,29.71,16,7,0,0.00
2013-1-26,26.4,18.4,7.9,15.4,9.1,3.5,82,67,49,30.18,29.97,7,4,0,0.00
2013-1-27,34.9,28.7,23.2,33.9,23.5,14.2,96,81,68,30.13,29.62,14,8,0,0.05
2013-1-28,47.7,40.3,35.2,44.6,37.5,34.2,98,90,68,29.71,29.54,12,5,0,0.18
2013-1-29,61.2,52.0,37.4,57.6,50.3,35.8,98,94,84,29.52,29.18,14,5,0,1.00
2013-1-30,37.0,29.6,17.1,35.4,27.2,11.7,96,91,79,29.41,29.00,16,9,0,0.40
2013-1-31,17.1,10.1,0.9,12.6,3.8,-4.6,87,75,66,29.96,29.41,19,10,0,0.00
2013-2-1,12.4,4.1,-4.2,9.5,-2.5,-9.3,88,74,63,30.14,29.92,16,7,0,0.00
2013-2-2,19.4,13.0,5.7,17.5,7.7,1.4,92,79,63,29.91,29.77,13,4,0,0.00
2013-2-3,22.5,16.0,8.4,16.7,10.2,3.5,91,78,62,29.82,29.72,14,6,0,0.00
2013-2-4,24.6,17.3,7.3,18.4,13.1,1.6,93,83,72,29.77,29.64,12,6,0,0.00
2013-2-5,29.5,20.9,3.6,25.8,16.4,0.0,91,82,73,29.86,29.56,11,4,0,0.00
2013-2-6,36.1,26.1,9.0,30.0,20.4,7.2,93,79,65,30.00,29.84,13,4,0,0.09
2013-2-7,34.0,32.1,23.5,32.2,30.2,21.0,97,93,83,29.86,29.63,11,4,0,0.40
2013-2-8,27.1,22.3,19.4,20.7,18.4,16.7,93,85,76,30.17,29.80,7,4,0,0.00
2013-2-9,30.4,26.1,20.7,25.5,22.2,18.8,94,85,78,30.18,29.83,10,4,0,0.00
2013-2-10,41.5,35.6,23.0,41.0,33.5,21.5,98,92,76,29.83,29.19,27,9,0,0.78
2013-2-11,38.8,30.9,25.9,32.2,24.0,19.7,87,75,71,29.81,29.23,26,14,0,0.03
2013-2-12,31.8,24.5,21.2,22.1,19.2,17.2,94,80,67,29.88,29.66,16,6,0,0.00
2013-2-13,43.0,31.9,21.2,31.9,26.8,19.5,95,82,64,29.66,29.46,12,4,0,0.00
2013-2-14,39.0,34.8,30.7,31.1,27.5,23.1,86,75,60,29.75,29.38,17,7,0,0.00
2013-2-15,30.6,24.2,15.8,24.6,13.0,7.1,78,63,44,29.98,29.76,12,7,0,0.00
2013-2-16,19.0,13.1,5.0,7.4,4.1,0.7,86,67,53,29.98,29.92,14,4,0,0.00
2013-2-17,28.9,18.5,2.5,19.4,10.1,-1.0,90,71,50,30.00,29.71,17,5,0,0.00
2013-2-18,49.8,36.3,21.6,43.4,29.9,18.3,97,78,66,29.70,29.19,20,8,0,0.58
2013-2-19,21.2,12.0,7.2,18.2,6.8,1.5,88,79,70,29.99,29.36,24,13,0,0.00
2013-2-20,22.6,12.7,4.8,12.0,5.7,-1.1,91,73,63,30.17,29.99,11,5,0,0.00
2013-2-21,26.6,20.9,9.5,23.8,17.1,6.9,95,85,79,30.18,29.74,19,9,0,0.00
2013-2-22,31.6,26.9,23.5,31.4,26.0,22.3,99,96,94,29.72,29.54,17,8,0,0.00
2013-2-23,30.2,24.1,19.6,24.4,19.3,15.0,94,82,66,29.73,29.65,15,7,0,0.00
2013-2-24,36.5,24.2,11.1,22.7,17.3,8.8,93,76,55,29.92,29.74,6,2,0,0.01
2013-2-25,42.8,29.8,16.2,28.0,22.6,14.3,94,76,55,29.95,29.73,11,4,0,0.00
2013-2-26,33.8,32.2,30.0,31.0,28.1,25.0,97,85,71,29.74,29.32,27,16,0,0.00
2013-2-27,34.0,31.2,28.4,30.3,28.5,26.0,95,90,82,29.50,29.33,12,7,0,0.01
2013-2-28,35.8,31.7,25.2,29.7,26.3,18.1,93,80,69,29.87,29.50,12,8,0,0.01
2013-3-1,25.2,24.0,22.8,19.9,18.1,16.1,83,78,73,30.01,29.86,12,8,0,0.00
2013-3-2,27.5,19.7,10.0,16.5,12.2,7.4,90,73,58,30.01,29.95,13,5,0,0.00
2013-3-3,34.2,19.1,4.5,17.0,9.8,1.5,91,69,39,29.95,29.84,7,2,0,0.00
2013-3-4,33.1,24.3,13.5,26.2,17.9,7.5,91,77,64,29.90,29.76,16,7,0,0.00
2013-3-5,32.7,29.0,25.2,30.4,26.5,21.9,96,90,74,29.82,29.57,14,9,0,0.00
2013-3-6,34.0,28.8,24.8,27.2,24.5,21.7,92,84,75,30.09,29.82,11,6,0,0.08
2013-3-7,37.8,29.2,18.3,24.8,22.1,16.6,93,76,59,30.20,30.08,7,3,0,0.00
2013-3-8,39.4,26.9,10.9,28.3,20.9,9.3,94,79,63,30.26,30.06,9,4,0,0.00
2013-3-9,40.3,35.7,28.0,33.7,29.3,21.7,88,77,73,30.06,29.57,17,8,0,0.07
2013-3-10,59.0,27.9,-40.0,99.9,29.8,-40.2,99,95,78,29.58,29.34,9,5,0,0.81
2013-3-11,104.0,13.3,-28.5,99.9,13.1,-28.7,99,95,85,29.55,29.32,14,5,0,0.14
2013-3-12,35.4,29.2,24.1,29.8,23.9,18.1,95,80,66,29.80,29.55,17,9,0,0.01
2013-3-13,33.8,26.6,20.1,19.1,14.3,9.3,83,61,37,30.09,29.80,16,7,0,0.00
2013-3-14,33.8,27.4,18.9,28.9,21.3,13.0,95,78,62,30.11,29.83,9,3,0,0.00
2013-3-15,42.1,33.0,27.5,34.7,30.4,26.1,98,90,66,29.85,29.52,20,4,0,0.18
2013-3-16,36.7,29.9,26.2,29.4,24.8,20.3,94,82,62,29.90,29.50,16,8,0,0.00
2013-3-17,35.2,28.9,21.7,23.5,20.0,14.0,78,69,60,30.00,29.74,17,9,0,0.00
2013-3-18,33.8,28.8,18.9,30.8,24.6,12.0,95,84,74,29.73,29.36,22,9,0,0.09
2013-3-19,30.9,21.8,13.5,15.2,11.3,7.1,78,64,45,29.85,29.56,29,13,0,0.00
2013-3-20,23.5,16.9,9.9,11.8,6.5,1.3,80,63,54,29.90,29.80,17,10,0,0.00
2013-3-21,34.2,20.8,10.4,15.7,9.7,3.4,74,63,44,29.84,29.77,10,4,0,0.00
2013-3-22,42.1,26.5,13.1,20.2,14.5,9.2,85,63,37,29.84,29.77,8,2,0,0.00
2013-3-23,41.0,32.3,22.5,25.3,21.3,16.7,81,65,45,29.92,29.80,12,5,0,0.00
2013-3-24,36.1,31.5,29.5,27.8,24.8,21.8,92,76,62,29.83,29.47,21,11,0,0.00
2013-3-25,35.4,31.0,26.6,25.9,23.0,19.8,79,72,64,29.87,29.54,14,7,0,0.00
2013-3-26,44.2,36.4,31.5,26.1,24.4,20.6,76,63,45,30.03,29.87,10,4,0,0.00
2013-3-27,44.2,36.1,25.3,27.1,23.1,17.9,75,60,44,30.10,30.04,10,3,0,0.00
2013-3-28,51.4,37.7,24.1,26.9,23.2,19.4,85,59,34,30.14,30.05,8,2,0,0.00
2013-3-29,56.5,42.8,27.9,31.1,26.4,22.9,85,55,31,30.11,29.99,7,2,0,0.00
2013-3-30,58.6,44.2,31.1,41.9,33.2,22.5,84,65,51,30.02,29.60,14,5,0,0.00
2013-3-31,57.0,44.3,34.3,42.8,35.2,22.7,95,72,41,29.67,29.48,22,8,0,0.00
2013-4-1,40.3,33.1,27.3,21.4,16.9,12.9,66,52,38,29.97,29.68,16,8,0,0.00
2013-4-2,44.8,32.4,21.6,19.6,15.6,11.9,79,53,27,30.09,29.98,14,5,0,0.00
2013-4-3,49.8,34.6,19.8,21.4,16.4,10.6,78,51,25,30.22,30.07,9,3,0,0.00
2013-4-4,59.9,43.3,26.8,36.9,26.9,17.4,72,54,34,30.07,29.73,14,5,0,0.00
2013-4-5,52.0,41.4,32.4,31.3,27.3,22.1,75,58,39,30.01,29.80,15,8,0,0.00
2013-4-6,66.4,49.6,35.2,48.9,35.6,21.8,90,60,39,29.91,29.33,22,10,0,0.21
2013-4-7,66.4,49.7,37.4,48.6,38.4,31.4,88,67,40,29.71,29.36,19,7,0,0.01
2013-4-8,62.8,51.2,37.4,52.7,44.9,31.0,96,79,66,29.73,29.27,26,9,0,0.74
2013-4-9,46.6,41.6,38.5,44.1,39.9,36.9,96,94,89,29.75,29.61,23,12,0,0.12
2013-4-10,39.4,37.8,34.7,38.1,36.8,33.7,98,96,93,29.77,29.59,24,15,0,1.26
2013-4-11,43.0,39.5,36.7,42.7,38.8,35.1,99,97,94,29.62,29.31,28,11,0,0.32
2013-4-12,43.2,37.3,34.7,37.8,33.7,29.5,96,87,75,29.60,29.32,18,8,0,0.05
2013-4-13,43.9,37.6,32.9,30.4,28.0,25.3,81,69,55,29.75,29.60,16,7,0,0.00
2013-4-14,62.1,47.4,35.4,49.8,36.9,27.3,77,67,55,29.78,29.36,21,11,0,0.00
2013-4-15,63.1,52.6,40.8,52.7,46.3,37.4,98,80,49,29.76,29.36,20,6,0,0.31
2013-4-16,57.0,45.6,35.6,39.4,35.5,30.8,92,69,48,30.05,29.74,11,6,0,0.00
2013-4-17,45.9,42.2,39.6,45.6,38.1,31.9,99,86,66,30.07,29.56,22,10,0,3.22
2013-4-18,61.2,49.0,37.6,59.2,47.5,31.7,99,95,76,29.57,29.15,26,9,0,1.64
2013-4-19,41.0,36.5,33.4,32.1,29.1,25.7,81,74,64,29.70,29.22,27,14,0,0.00
2013-4-20,50.4,37.9,26.2,26.0,21.6,16.1,80,54,30,30.18,29.71,12,5,0,0.00
2013-4-21,53.8,42.5,31.5,37.0,29.8,23.2,79,62,46,30.29,30.05,18,9,0,0.00
2013-4-22,68.0,53.2,37.6,44.4,38.8,31.4,78,60,40,30.07,29.78,14,6,0,0.00
2013-4-23,53.6,44.5,37.0,48.1,41.3,33.2,95,89,66,29.80,29.70,14,5,0,0.41
2013-4-24,54.9,43.3,35.2,32.7,29.6,26.6,81,61,37,29.84,29.73,14,6,0,0.01
2013-4-25,54.3,43.9,37.8,35.7,32.3,28.9,87,65,42,30.08,29.80,14,6,0,0.00
2013-4-26,68.2,52.6,36.1,50.3,40.2,27.8,82,63,50,30.09,29.96,17,7,0,0.00
2013-4-27,69.6,57.7,40.5,50.0,45.2,40.0,99,66,39,30.04,29.75,14,4,0,0.00
2013-4-28,72.3,60.1,52.2,55.2,49.6,44.0,86,69,53,29.75,29.56,7,2,0,0.00
2013-4-29,72.7,62.0,49.3,58.3,53.6,48.7,98,76,56,29.67,29.47,17,7,0,0.00
2013-4-30,88.2,72.5,59.5,63.6,57.3,54.6,88,62,35,29.65,29.48,21,8,0,0.00
2013-5-1,86.9,74.1,59.5,58.7,56.0,51.3,82,56,32,29.85,29.66,11,4,0,0.00
2013-5-2,66.0,50.5,41.4,55.5,44.3,37.6,99,80,63,30.01,29.86,20,9,0,1.29
2013-5-3,49.6,43.8,39.0,48.5,43.0,38.1,99,97,95,29.95,29.71,17,11,0,0.31
2013-5-4,70.7,57.9,47.8,56.7,50.7,45.8,96,79,53,29.80,29.71,15,7,0,0.18
2013-5-5,74.8,60.6,47.8,54.4,48.5,43.6,99,67,42,29.82,29.73,18,7,0,0.00
2013-5-6,74.7,61.7,47.3,50.7,43.5,38.8,84,54,30,29.84,29.73,13,4,0,0.00
2013-5-7,83.5,66.6,48.6,49.9,44.2,40.1,80,49,25,29.84,29.70,9,2,0,0.00
2013-5-8,86.2,68.4,46.2,52.6,47.9,43.7,94,53,25,29.82,29.68,6,2,0,0.00
2013-5-9,73.2,60.8,47.3,59.9,53.9,46.8,98,79,60,29.73,29.59,18,4,0,0.54
2013-5-10,50.7,46.7,41.9,46.8,44.5,41.3,99,92,81,29.75,29.57,16,6,0,0.19
2013-5-11,59.9,48.7,40.5,49.8,38.2,29.2,99,71,34,29.83,29.59,16,6,0,0.02
2013-5-12,58.5,46.8,35.1,31.5,28.4,25.2,74,51,29,29.90,29.82,11,5,0,0.00
2013-5-13,69.6,53.1,29.8,40.7,32.0,27.2,92,50,22,29.96,29.72,8,3,0,0.00
2013-5-14,97.2,73.7,51.1,63.9,52.6,40.0,69,51,24,29.71,29.32,8,4,0,0.00
2013-5-15,87.1,75.3,61.3,61.8,52.1,45.7,64,46,24,29.63,29.40,11,4,0,0.00
2013-5-16,89.4,71.1,52.7,54.0,48.7,41.8,80,49,24,29.71,29.60,10,3,0,0.00
2013-5-17,74.1,63.4,56.5,56.4,49.1,41.0,69,60,50,29.79,29.71,16,7,0,0.00
2013-5-18,83.3,69.8,53.1,64.5,57.6,45.8,86,66,48,29.82,29.67,9,4,0,0.00
2013-5-19,91.9,75.7,60.8,67.5,62.6,56.5,90,66,45,29.72,29.51,14,5,0,0.10
2013-5-20,87.6,76.0,65.3,68.1,62.4,59.4,94,65,42,29.54,29.44,15,6,0,0.23
2013-5-21,81.7,70.7,61.3,66.0,60.9,55.1,95,73,50,29.45,29.39,16,6,0,0.02
2013-5-22,75.9,66.3,61.3,63.9,58.7,54.7,96,77,52,29.50,29.37,11,3,0,0.17
2013-5-23,61.3,52.7,41.0,55.8,47.3,34.4,98,83,62,30.07,29.49,14,8,0,0.04
2013-5-24,70.0,52.3,34.0,41.9,36.5,31.9,92,58,32,30.23,30.05,12,4,0,0.00
2013-5-25,58.8,52.1,45.1,43.6,38.4,33.9,74,60,48,30.17,30.05,12,4,0,0.00
2013-5-26,72.1,55.7,43.9,52.6,44.4,35.4,88,67,40,30.07,29.89,13,6,0,0.09
2013-5-27,58.5,55.4,50.7,57.0,53.8,46.6,99,95,84,29.91,29.62,15,8,0,0.04
2013-5-28,77.2,67.1,54.0,70.9,63.9,53.7,99,90,70,29.62,29.43,14,4,0,0.10
2013-5-29,88.3,74.6,63.0,72.3,65.8,60.1,95,76,58,29.70,29.51,9,3,0,0.01
2013-5-30,87.1,74.5,62.6,71.1,65.7,60.2,97,75,59,29.65,29.49,17,6,0,0.41
2013-5-31,77.0,69.1,61.2,66.4,63.8,60.6,99,84,62,29.58,29.44,14,4,0,0.20
2013-6-1,81.0,69.0,63.1,67.2,62.9,56.3,97,82,60,29.47,29.38,8,4,0,0.22
2013-6-2,63.9,57.6,47.3,57.9,49.6,45.1,95,75,63,29.79,29.46,9,4,0,0.00
2013-6-3,77.0,60.1,42.1,51.5,46.5,41.8,99,66,35,29.90,29.76,6,2,0,0.00
2013-6-4,77.7,62.7,47.5,50.5,45.5,40.5,85,56,30,29.95,29.81,13,5,0,0.00
2013-6-5,68.4,58.9,53.2,57.2,51.0,45.3,88,76,60,29.89,29.72,14,6,0,0.20
2013-6-6,64.9,57.4,53.1,55.7,51.9,47.6,94,82,66,29.74,29.66,14,6,0,0.41
2013-6-7,72.0,60.8,52.2,57.5,48.6,42.3,86,66,41,29.75,29.65,13,5,0,0.00
2013-6-8,85.1,66.3,44.4,51.0,46.5,42.2,97,54,27,29.76,29.68,8,2,0,0.00
2013-6-9,82.4,70.1,56.5,61.8,56.1,44.2,90,62,47,29.74,29.52,17,6,0,0.00
2013-6-10,88.5,74.0,60.6,67.1,63.0,59.8,99,71,46,29.64,29.50,8,2,0,0.01
2013-6-11,92.5,76.2,58.6,67.8,63.4,57.2,97,67,44,29.69,29.56,6,2,0,0.00
2013-6-12,95.2,73.4,64.6,75.3,65.7,61.9,95,78,53,29.69,29.37,14,4,0,1.09
2013-6-13,84.4,71.0,59.4,62.4,58.4,52.5,94,67,43,29.79,29.44,15,6,0,0.00
2013-6-14,88.3,68.8,53.4,60.9,54.7,48.9,86,63,36,29.92,29.71,12,5,0,0.00
2013-6-15,92.1,70.5,57.2,71.9,62.0,50.5,94,76,51,29.81,29.56,9,4,0,0.11
2013-6-16,97.3,79.4,66.2,68.8,61.3,54.5,88,58,30,29.71,29.60,14,3,0,0.00
2013-6-17,95.0,77.4,60.3,61.4,56.5,53.0,78,52,28,29.71,29.59,17,4,0,0.00
2013-6-18,73.6,63.9,55.8,58.8,52.7,44.6,82,68,56,29.83,29.68,16,10,0,0.00
2013-6-19,90.3,68.9,51.1,60.7,51.1,42.3,75,55,33,29.91,29.78,9,5,0,0.00
2013-6-20,96.6,77.1,54.7,66.7,57.6,44.7,70,53,33,29.91,29.80,7,3,0,0.00
2013-6-21,78.6,72.2,67.6,67.6,64.2,59.6,94,77,66,29.90,29.58,16,3,0,0.25
2013-6-22,83.1,72.9,64.8,74.1,67.5,62.6,98,84,70,29.88,29.68,18,4,0,1.17
2013-6-23,93.7,75.1,65.8,76.1,67.5,63.7,95,79,57,29.79,29.67,9,3,0,0.11
2013-6-24,90.3,71.8,65.5,71.9,66.3,64.0,97,84,55,29.83,29.59,9,3,0,0.26
2013-6-25,87.8,74.0,64.9,75.5,69.2,63.6,98,86,59,29.74,29.53,9,2,0,1.03
2013-6-26,88.0,72.9,65.8,70.9,67.5,64.6,97,85,54,29.56,29.46,14,3,0,2.59
2013-6-27,94.8,80.0,67.5,72.9,67.9,61.3,97,70,43,29.54,29.44,14,4,0,0.00
2013-6-28,85.3,73.8,65.1,64.8,61.4,57.5,92,67,46,29.48,29.36,12,4,0,0.06
2013-6-29,71.6,65.9,61.7,64.2,60.4,54.9,96,83,60,29.54,29.35,17,4,0,0.92
2013-6-30,81.1,68.9,59.2,63.9,54.6,47.5,83,62,43,29.76,29.54,17,7,0,0.00
2013-7-1,77.5,68.1,55.9,57.0,51.0,46.6,72,56,38,29.84,29.75,21,8,0,0.00
2013-7-2,77.2,65.2,56.5,55.5,51.2,43.9,86,62,34,29.86,29.80,17,6,0,0.00
2013-7-3,72.7,64.5,56.3,62.8,57.9,52.1,95,80,65,29.84,29.78,7,1,0,0.08
2013-7-4,94.1,74.1,54.7,66.8,61.2,53.9,97,68,35,29.86,29.73,8,2,0,0.00
2013-7-5,93.6,77.3,60.4,68.7,62.8,56.5,90,64,40,29.85,29.75,8,2,0,0.00
2013-7-6,96.1,76.5,59.9,68.8,63.0,57.9,94,67,38,29.81,29.74,6,2,0,0.00
2013-7-7,97.0,80.5,68.2,73.8,68.9,65.1,92,70,44,29.76,29.70,8,2,0,0.00
2013-7-8,90.3,77.7,70.3,74.5,69.7,66.5,92,77,60,29.75,29.69,10,4,0,0.40
2013-7-9,91.8,80.1,71.4,74.4,72.5,69.6,95,79,57,29.74,29.60,10,3,0,0.12
2013-7-10,89.6,79.1,68.5,73.5,65.0,56.6,93,65,41,29.76,29.59,9,3,0,0.00
2013-7-11,88.3,72.7,59.4,60.5,56.3,52.1,85,59,34,29.87,29.76,9,3,0,0.00
2013-7-12,94.8,73.6,55.4,56.9,52.2,44.4,88,53,23,29.92,29.79,7,2,0,0.00
2013-7-13,90.9,74.9,57.6,63.9,58.1,52.1,86,58,35,29.93,29.87,8,3,0,0.00
2013-7-14,95.2,79.3,63.3,71.3,64.7,57.7,86,63,41,29.99,29.91,9,4,0,0.00
2013-7-15,103.1,83.3,68.5,75.3,69.8,63.9,86,66,40,30.05,29.98,8,4,0,0.00
2013-7-16,99.9,84.9,72.0,77.3,72.8,69.1,91,69,49,30.07,30.00,8,2,0,0.00
2013-7-17,101.7,86.6,73.2,76.3,72.4,69.4,88,65,45,30.08,29.93,8,3,0,0.00
2013-7-18,98.8,86.1,73.8,75.9,72.3,70.0,89,66,46,29.98,29.71,11,3,0,0.00
2013-7-19,97.0,84.4,73.8,74.4,70.4,65.4,83,65,45,29.72,29.52,18,6,0,0.03
2013-7-20,99.3,78.8,65.8,66.9,62.7,60.0,85,61,32,29.72,29.57,10,3,0,0.00
2013-7-21,92.5,74.3,62.4,70.3,62.9,57.8,86,70,46,29.71,29.61,15,5,0,0.00
2013-7-22,94.6,78.1,62.4,70.0,65.1,59.4,92,67,43,29.64,29.49,9,3,0,0.06
2013-7-23,83.1,70.7,59.4,61.8,57.5,51.6,88,65,41,29.73,29.44,11,4,0,0.05
2013-7-24,79.3,65.4,52.7,54.0,52.2,49.9,92,65,40,29.83,29.73,10,3,0,0.00
2013-7-25,87.6,69.9,51.3,61.1,56.1,49.1,92,65,38,29.86,29.73,6,2,0,0.00
2013-7-26,75.9,65.8,57.9,65.8,60.3,55.0,91,83,68,29.73,29.62,9,3,0,1.27
2013-7-27,67.5,59.3,54.5,55.3,48.8,45.1,93,70,49,29.71,29.63,10,4,0,0.00
2013-7-28,73.0,61.3,53.8,52.5,48.4,45.6,76,64,44,29.77,29.63,14,4,0,0.00
2013-7-29,81.3,66.2,51.6,60.0,54.1,48.2,89,67,46,29.91,29.77,8,3,0,0.00
2013-7-30,73.6,63.7,54.5,62.6,58.2,52.5,93,83,58,29.94,29.82,7,3,0,0.15
2013-7-31,85.6,69.6,60.6,65.4,62.0,57.0,94,79,50,29.82,29.68,6,3,0,0.02
2013-8-1,87.4,70.4,58.6,59.7,56.7,54.1,92,66,34,29.75,29.65,10,2,0,0.00
2013-8-2,93.6,75.3,61.5,68.1,60.7,55.4,87,63,38,29.72,29.57,9,3,0,0.24
2013-8-3,86.5,72.2,58.8,57.3,53.5,49.8,76,54,30,29.86,29.73,11,3,0,0.00
2013-8-4,81.5,68.0,56.1,59.5,53.9,48.5,80,62,40,29.97,29.85,9,4,0,0.00
2013-8-5,77.2,64.8,55.0,62.9,57.9,51.8,89,79,55,29.86,29.62,11,2,0,0.09
2013-8-6,89.4,73.7,64.9,71.1,67.2,61.6,94,82,54,29.64,29.54,8,2,0,0.72
2013-8-7,94.8,78.1,65.8,70.9,66.6,59.8,94,71,43,29.71,29.52,12,3,0,0.00
2013-8-8,79.7,69.4,61.3,61.8,58.8,50.6,92,71,51,29.78,29.70,12,5,0,0.00
2013-8-9,88.0,72.2,55.4,65.4,57.9,49.1,86,62,47,29.83,29.69,9,2,0,0.00
2013-8-10,90.1,71.7,57.2,61.5,56.0,53.2,89,60,34,29.90,29.81,6,1,0,0.00
2013-8-11,86.2,68.4,54.1,66.9,60.3,52.1,94,77,48,29.90,29.76,5,1,0,0.18
2013-8-12,89.8,74.4,63.5,68.3,63.3,55.6,92,71,48,29.78,29.64,8,2,0,0.00
2013-8-13,76.5,64.4,54.3,56.5,49.4,45.3,84,60,38,29.91,29.70,14,5,0,0.00
2013-8-14,83.5,63.2,48.0,55.7,50.0,45.8,94,65,34,29.99,29.87,7,2,0,0.00
2013-8-15,83.3,64.6,51.3,58.3,52.1,47.6,88,66,38,29.94,29.83,7,2,0,0.00
2013-8-16,86.9,68.6,52.0,59.1,53.5,49.5,92,62,33,29.94,29.86,11,2,0,0.00
2013-8-17,89.8,69.5,52.2,59.3,54.1,49.4,93,62,33,30.01,29.88,7,2,0,0.00
2013-8-18,91.9,71.4,51.4,62.2,55.7,48.9,92,62,35,29.98,29.85,7,2,0,0.00
2013-8-19,88.3,72.2,55.4,65.8,59.5,51.9,91,67,46,29.88,29.78,10,2,0,0.00
2013-8-20,91.8,75.5,60.8,68.9,63.3,58.2,92,68,47,29.87,29.77,7,2,0,0.00
2013-8-21,93.2,78.3,66.0,68.7,65.0,61.0,86,66,45,29.83,29.69,10,3,0,0.00
2013-8-22,78.3,70.9,63.7,66.8,64.4,61.0,92,81,63,29.91,29.73,13,2,0,0.31
2013-8-23,84.7,70.6,57.4,62.1,55.6,49.8,94,63,35,29.94,29.86,14,4,0,0.00
2013-8-24,91.6,73.0,55.2,67.5,60.1,49.7,92,67,45,30.02,29.92,8,2,0,0.00
2013-8-25,94.1,77.4,63.7,70.7,63.4,54.9,82,64,46,30.00,29.87,10,3,0,0.00
2013-8-26,97.0,79.4,65.5,72.6,66.9,60.5,85,68,45,29.90,29.74,14,3,0,0.00
2013-8-27,97.5,83.2,71.2,76.0,70.5,67.1,87,68,49,29.74,29.57,13,4,0,0.00
2013-8-28,89.8,78.3,68.2,70.9,67.2,63.5,86,69,53,29.80,29.58,10,5,0,0.00
2013-8-29,95.4,77.6,65.8,70.6,66.6,63.3,94,72,44,29.85,29.73,6,2,0,0.00
2013-8-30,100.2,78.5,66.7,75.6,68.7,64.0,93,75,40,29.73,29.48,20,3,0,0.79
2013-8-31,78.3,71.6,65.8,67.7,65.3,62.7,90,81,68,29.61,29.53,13,5,0,0.00
2013-9-1,90.1,74.2,61.2,71.5,64.4,57.2,95,74,50,29.58,29.47,8,2,0,0.04
2013-9-2,83.8,68.2,55.6,59.9,56.3,50.8,88,68,44,29.74,29.57,11,3,0,0.00
2013-9-3,84.0,65.1,49.3,56.0,51.8,47.1,93,66,37,29.86,29.75,6,1,0,0.00
2013-9-4,91.9,69.7,51.6,62.6,56.4,49.3,94,67,36,29.89,29.78,9,2,0,0.00
2013-9-5,77.0,67.6,56.5,63.7,56.0,47.2,93,68,51,30.00,29.85,17,7,0,0.00
2013-9-6,91.8,72.6,55.0,67.4,58.5,47.2,81,63,45,29.97,29.75,8,2,0,0.00
2013-9-7,94.5,76.8,63.7,68.4,63.0,58.4,83,65,39,29.76,29.61,10,3,0,0.00
2013-9-8,75.6,70.4,66.2,65.7,63.3,61.4,86,79,68,29.78,29.67,20,9,0,0.00
2013-9-9,96.6,80.1,66.4,75.5,68.9,62.3,92,71,51,29.69,29.55,7,3,0,0.00
2013-9-10,99.0,83.5,69.3,67.5,63.6,60.6,74,54,31,29.74,29.61,14,5,0,0.00
2013-9-11,92.7,77.3,67.5,68.4,63.8,61.3,82,64,42,29.81,29.72,6,2,0,0.04
2013-9-12,82.9,69.5,58.3,62.3,55.0,46.4,93,63,38,29.85,29.72,11,3,0,0.00
2013-9-13,72.9,58.0,46.9,50.0,41.4,37.6,78,56,31,29.97,29.85,12,5,0,0.00
2013-9-14,78.1,58.3,40.5,48.2,43.7,38.5,93,63,35,29.97,29.76,7,1,0,0.00
2013-9-15,57.9,55.0,52.2,54.8,50.1,42.4,91,84,62,29.95,29.74,6,2,0,1.17
2013-9-16,67.3,55.9,46.4,53.4,45.1,40.6,90,69,47,30.15,29.96,11,7,0,0.00
2013-9-17,76.1,58.9,44.6,54.4,48.4,41.1,91,70,47,30.10,29.85,10,4,0,0.00
2013-9-18,81.9,66.9,57.9,66.9,58.5,50.4,86,75,52,29.85,29.65,8,3,0,0.05
2013-9-19,95.7,76.9,67.1,70.3,66.2,61.5,92,72,44,29.68,29.48,20,4,0,0.54
2013-9-20,73.9,66.3,56.5,64.0,57.3,48.7,91,74,52,29.59,29.48,13,5,0,0.02
2013-9-21,70.7,57.6,44.6,49.7,46.4,40.4,92,69,46,29.71,29.58,6,3,0,0.00
2013-9-22,76.1,54.9,39.9,47.6,43.5,38.0,94,70,36,29.84,29.71,9,3,0,0.00
2013-9-23,71.8,56.3,44.1,51.0,46.0,41.6,92,71,48,29.89,29.76,9,4,0,0.00
2013-9-24,74.3,58.9,45.7,50.5,47.0,42.4,90,67,42,29.82,29.67,10,5,0,0.00
2013-9-25,76.3,59.1,47.8,53.1,48.1,45.5,93,70,43,29.75,29.67,11,4,0,0.00
2013-9-26,82.8,61.8,45.9,53.7,48.4,43.7,95,67,28,29.84,29.73,7,3,0,0.46
2013-9-27,83.7,66.6,50.0,55.2,50.9,45.5,93,61,36,29.93,29.76,11,3,0,0.00
2013-9-28,84.2,67.7,52.5,63.8,53.4,43.2,89,62,44,29.82,29.59,12,4,0,0.11
2013-9-29,75.0,59.7,47.5,53.7,45.7,39.6,94,65,31,29.84,29.70,8,2,0,0.01
2013-9-30,79.3,59.2,42.3,49.8,44.5,38.8,93,63,29,29.78,29.59,8,2,0,0.00
2013-10-1,85.6,67.3,53.6,62.1,57.3,48.2,94,73,44,29.70,29.59,18,4,0,0.00
2013-10-2,82.9,66.4,50.7,57.5,49.2,40.7,94,59,29,29.87,29.70,13,4,0,0.00
2013-10-3,78.4,67.8,57.7,67.5,61.6,45.8,94,81,62,29.72,29.57,7,2,0,0.20
2013-10-4,72.7,67.7,64.0,68.4,64.0,59.9,93,88,81,29.74,29.61,13,3,0,0.52
2013-10-5,78.6,68.2,60.6,69.6,64.2,53.3,95,88,70,29.67,29.50,12,3,0,0.52
2013-10-6,62.6,52.0,43.3,53.2,40.9,36.5,84,67,43,29.53,29.44,14,4,0,0.00
2013-10-7,73.4,54.9,43.3,46.3,42.9,38.7,87,67,38,29.84,29.51,10,4,0,0.00
2013-10-8,81.3,59.8,41.2,51.4,44.7,39.6,95,63,30,29.95,29.84,10,1,0,0.00
2013-10-9,77.5,60.3,45.1,47.8,43.1,36.5,90,58,24,30.01,29.87,10,2,0,0.00
2013-10-10,80.4,61.5,43.3,52.8,48.0,41.7,94,65,36,29.95,29.78,7,2,0,0.00
2013-10-11,77.0,64.0,52.0,58.0,51.5,47.2,86,65,50,29.82,29.66,11,4,0,0.00
2013-10-12,72.1,61.0,45.5,60.2,49.3,37.0,85,67,39,29.95,29.68,11,4,0,0.11
2013-10-13,68.4,51.5,37.4,41.2,36.2,31.8,91,60,29,30.17,29.95,8,1,0,0.00
2013-10-14,63.9,49.2,34.0,43.8,38.6,31.1,93,69,47,30.19,29.87,13,4,0,0.00
2013-10-15,67.3,54.9,47.1,60.0,47.2,38.9,91,75,64,29.87,29.50,14,6,0,0.19
2013-10-16,52.3,49.1,45.3,45.0,42.9,38.7,88,79,73,29.68,29.58,11,5,0,0.00
2013-10-17,55.9,46.9,38.1,45.2,42.0,34.6,93,84,55,29.68,29.58,12,2,0,0.33
2013-10-18,48.0,42.8,34.9,40.6,36.1,31.6,93,78,63,29.70,29.59,16,3,0,0.00
2013-10-19,55.6,43.3,35.2,37.8,35.2,32.3,90,74,45,29.68,29.51,14,4,0,0.02
2013-10-20,58.6,46.0,31.5,42.5,37.6,30.0,95,74,55,29.63,29.47,10,2,0,0.01
2013-10-21,52.7,42.1,30.4,40.5,28.9,22.2,73,60,48,29.72,29.53,16,6,0,0.00
2013-10-22,41.7,34.1,26.6,31.8,27.0,21.9,92,76,53,29.75,29.66,6,1,0,0.00
2013-10-23,45.1,35.3,27.0,28.2,25.8,23.4,92,70,48,29.78,29.69,10,3,0,0.00
2013-10-24,42.6,36.2,27.3,26.6,23.7,20.5,78,61,44,30.08,29.78,9,4,0,0.00
2013-10-25,52.5,38.9,23.4,30.0,25.1,19.0,85,59,39,30.18,29.77,16,6,0,0.00
2013-10-26,55.6,44.7,32.7,36.3,28.8,24.4,73,54,41,29.84,29.61,17,6,0,0.00
2013-10-27,56.1,40.9,25.9,31.7,27.5,22.3,87,61,38,29.84,29.69,17,3,0,0.00
2013-10-28,49.1,41.0,31.1,37.8,31.8,24.8,82,70,63,30.15,29.81,16,8,0,0.00
2013-10-29,60.3,45.8,35.4,39.4,35.1,29.0,85,68,40,30.14,29.89,10,6,0,0.00
2013-10-30,57.7,52.4,46.8,56.3,49.4,38.6,95,90,72,29.89,29.49,11,4,0,0.50
2013-10-31,61.9,56.7,43.9,59.9,54.5,39.3,95,92,83,29.48,29.00,16,5,0,0.58
2013-11-1,46.8,44.0,41.0,42.6,39.5,36.6,93,84,77,29.50,29.14,19,6,0,0.04
2013-11-2,48.4,40.3,33.4,39.0,35.0,31.1,94,82,57,29.92,29.50,8,2,0,0.02
2013-11-3,52.0,39.5,26.8,37.2,31.1,25.3,95,74,46,30.06,29.92,10,3,0,0.00
2013-11-4,56.7,48.8,41.4,41.5,37.3,32.8,74,65,53,30.00,29.81,12,7,0,0.00
2013-11-5,53.6,51.1,48.7,49.4,45.5,41.4,92,81,71,30.02,29.66,14,5,0,0.03
2013-11-6,55.8,44.7,32.2,53.8,39.7,23.3,93,83,60,29.95,29.51,16,6,0,0.63
2013-11-7,41.0,33.4,26.2,29.5,26.1,22.3,85,75,59,30.01,29.95,11,4,0,0.00
2013-11-8,46.9,42.3,28.9,32.2,29.8,24.7,84,62,52,30.04,29.63,12,6,0,0.00
2013-11-9,57.7,48.0,38.8,40.2,34.3,24.0,69,59,50,29.89,29.58,21,11,0,0.00
2013-11-10,51.1,40.8,32.7,30.9,27.6,24.2,71,60,45,30.10,29.89,16,6,0,0.00
2013-11-11,45.1,34.8,20.8,31.8,25.3,12.6,90,69,57,30.31,29.84,14,6,0,0.07
2013-11-12,31.8,23.8,17.8,17.7,13.4,11.5,77,65,50,30.48,30.32,12,5,0,0.00
2013-11-13,40.6,28.4,16.5,21.5,16.0,10.3,77,61,42,30.37,29.90,20,8,0,0.00
2013-11-14,49.1,38.1,28.8,30.9,23.9,17.4,65,57,47,29.90,29.65,17,7,0,0.00
2013-11-15,54.0,41.6,32.7,34.8,29.1,22.6,81,62,47,29.72,29.65,9,5,0,0.00
2013-11-16,58.3,49.2,35.8,54.6,46.2,31.1,94,89,79,29.67,29.27,22,10,0,0.20
2013-11-17,66.0,52.9,40.3,62.3,48.2,33.0,95,84,72,29.50,28.82,28,12,0,1.46
2013-11-18,41.2,36.2,27.7,32.3,25.6,21.1,77,66,51,30.02,29.51,24,10,0,0.01
2013-11-19,42.6,31.2,20.1,26.9,22.6,17.1,92,71,51,30.13,30.00,8,3,0,0.00
2013-11-20,40.8,35.6,28.8,34.3,28.1,24.3,87,75,59,30.04,29.83,14,6,0,0.08
2013-11-21,46.8,42.2,37.9,39.5,37.1,34.4,87,82,75,29.98,29.85,6,2,0,0.01
2013-11-22,40.1,33.0,23.5,36.0,25.1,15.5,87,73,56,30.25,29.97,11,6,0,0.02
2013-11-23,23.5,19.4,11.5,15.2,7.0,1.4,71,58,48,30.48,30.21,17,7,0,0.00
2013-11-24,27.3,17.2,6.1,9.4,5.1,0.1,77,59,39,30.48,30.10,11,5,0,0.00
2013-11-25,30.2,26.0,19.4,24.1,18.7,9.7,85,74,61,30.09,29.81,18,9,0,0.00
2013-11-26,32.2,26.4,13.8,24.6,17.8,3.1,83,70,54,29.96,29.78,14,6,0,0.00
2013-11-27,28.0,18.3,9.1,13.0,7.3,0.9,71,62,50,30.02,29.95,12,5,0,0.00
2013-11-28,32.9,24.1,15.1,16.8,13.0,10.3,82,63,51,30.27,29.92,9,4,0,0.00
2013-11-29,34.9,23.4,9.3,20.0,13.8,5.2,85,68,48,30.40,30.14,7,3,0,0.00
2013-11-30,50.0,35.5,26.6,33.1,25.2,19.2,81,67,51,30.14,29.78,13,4,0,0.00
2013-12-1,43.9,33.9,27.3,27.4,25.6,22.0,93,73,51,29.88,29.73,8,3,0,0.00
2013-12-2,42.1,34.4,25.9,32.6,27.3,23.1,93,76,55,29.73,29.48,11,5,0,0.01
2013-12-3,44.6,39.7,34.7,43.5,38.2,32.6,96,94,92,29.48,29.41,7,4,0,0.02
2013-12-4,52.2,46.2,33.3,50.9,44.8,30.1,97,95,86,29.48,29.23,18,6,0,0.03
2013-12-5,32.7,23.0,16.7,29.8,14.9,7.7,89,71,62,30.03,29.44,23,11,0,0.00
2013-12-6,19.6,13.7,8.8,8.0,4.9,0.7,75,67,60,30.32,30.02,10,5,0,0.00
2013-12-7,19.8,10.0,4.3,4.9,1.2,-1.0,78,67,50,30.46,30.32,8,4,0,0.00
2013-12-8,23.2,18.1,9.0,20.3,12.9,2.1,91,80,64,30.36,29.68,14,6,0,0.00
2013-12-9,22.1,11.7,-6.3,19.9,6.8,-10.8,91,80,67,29.97,29.68,17,8,0,0.00
2013-12-10,21.6,9.6,-8.5,11.3,1.8,-12.7,81,70,60,30.04,29.73,19,8,0,0.00
2013-12-11,18.1,10.1,-2.9,12.0,2.4,-9.9,86,71,49,30.32,30.01,11,5,0,0.00
2013-12-12,19.0,7.2,-7.6,7.8,-0.2,-13.1,80,71,60,30.29,29.94,14,5,0,0.00
2013-12-13,28.8,21.7,10.6,24.3,15.1,6.7,84,76,62,29.95,29.83,14,5,0,0.00
2013-12-14,28.9,25.3,18.9,26.1,22.5,16.2,93,89,82,29.85,29.68,16,8,0,0.00
2013-12-15,19.9,12.5,9.5,16.9,5.6,-0.7,88,74,61,29.88,29.68,17,7,0,0.00
2013-12-16,19.6,11.3,3.4,11.9,4.0,-5.5,86,72,61,29.89,29.75,7,3,0,0.00
2013-12-17,35.4,24.4,15.3,26.1,18.2,11.9,90,78,59,29.85,29.68,21,9,0,0.00
2013-12-18,33.6,22.9,11.8,24.1,15.7,7.7,83,74,53,29.90,29.55,15,6,0,0.00
2013-12-19,34.7,29.5,21.9,31.0,26.2,19.7,94,87,79,29.67,29.55,15,6,0,0.08
2013-12-20,32.5,30.8,29.3,31.0,29.3,27.8,94,94,94,29.57,29.48,14,8,0,0.07